sensor_id;sensor_type;location;lat;lon;timestamp;P1;durP1;ratioP1;P2;durP2;ratioP2
73382;SDS011;61600;48.126;11.542;2024-01-11T00:00:57;32.58;;;10.43;;
73382;SDS011;61600;48.126;11.542;2024-01-11T00:03:24;34.42;;;11.40;;
73382;SDS011;61600;48.126;11.542;2024-01-11T00:05:50;31.00;;;11.07;;
73382;SDS011;61600;48.126;11.542;2024-01-11T00:08:16;41.78;;;12.02;;
73382;SDS011;61600;48.126;11.542;2024-01-11T00:10:41;43.20;;;12.23;;
73382;SDS011;61600;48.126;11.542;2024-01-11T00:13:07;35.75;;;11.98;;
73382;SDS011;61600;48.126;11.542;2024-01-11T00:15:33;39.03;;;12.48;;
73382;SDS011;61600;48.126;11.542;2024-01-11T00:17:58;40.30;;;12.23;;
73382;SDS011;61600;48.126;11.542;2024-01-11T00:20:24;36.92;;;11.77;;
73382;SDS011;61600;48.126;11.542;2024-01-11T00:22:49;38.88;;;13.35;;
73382;SDS011;61600;48.126;11.542;2024-01-11T00:25:15;42.90;;;13.18;;
73382;SDS011;61600;48.126;11.542;2024-01-11T00:27:41;43.08;;;13.35;;
73382;SDS011;61600;48.126;11.542;2024-01-11T00:30:07;38.67;;;12.23;;
73382;SDS011;61600;48.126;11.542;2024-01-11T00:32:33;38.15;;;11.75;;
73382;SDS011;61600;48.126;11.542;2024-01-11T00:34:58;42.25;;;13.02;;
73382;SDS011;61600;48.126;11.542;2024-01-11T00:37:24;32.22;;;11.02;;
73382;SDS011;61600;48.126;11.542;2024-01-11T00:39:50;29.65;;;9.23;;
73382;SDS011;61600;48.126;11.542;2024-01-11T00:42:16;30.63;;;10.52;;
73382;SDS011;61600;48.126;11.542;2024-01-11T00:44:41;38.63;;;11.55;;
73382;SDS011;61600;48.126;11.542;2024-01-11T00:47:07;34.10;;;11.05;;
73382;SDS011;61600;48.126;11.542;2024-01-11T00:49:32;33.88;;;10.60;;
73382;SDS011;61600;48.126;11.542;2024-01-11T00:51:58;33.67;;;11.05;;
73382;SDS011;61600;48.126;11.542;2024-01-11T00:54:23;33.25;;;10.15;;
73382;SDS011;61600;48.126;11.542;2024-01-11T00:56:50;30.23;;;10.20;;
73382;SDS011;61600;48.126;11.542;2024-01-11T00:59:15;30.75;;;10.48;;
73382;SDS011;61600;48.126;11.542;2024-01-11T01:01:51;36.92;;;11.38;;
73382;SDS011;61600;48.126;11.542;2024-01-11T01:04:17;36.40;;;12.05;;
73382;SDS011;61600;48.126;11.542;2024-01-11T01:06:42;31.30;;;10.32;;
73382;SDS011;61600;48.126;11.542;2024-01-11T01:09:08;36.28;;;11.60;;
73382;SDS011;61600;48.126;11.542;2024-01-11T01:11:34;42.80;;;11.88;;
73382;SDS011;61600;48.126;11.542;2024-01-11T01:14:00;42.03;;;11.45;;
73382;SDS011;61600;48.126;11.542;2024-01-11T01:16:26;38.03;;;11.35;;
73382;SDS011;61600;48.126;11.542;2024-01-11T01:18:53;41.28;;;13.52;;
73382;SDS011;61600;48.126;11.542;2024-01-11T01:21:18;41.15;;;12.00;;
73382;SDS011;61600;48.126;11.542;2024-01-11T01:23:44;35.80;;;11.25;;
73382;SDS011;61600;48.126;11.542;2024-01-11T01:26:09;39.78;;;12.73;;
73382;SDS011;61600;48.126;11.542;2024-01-11T01:28:35;32.00;;;10.75;;
73382;SDS011;61600;48.126;11.542;2024-01-11T01:31:01;35.20;;;11.27;;
73382;SDS011;61600;48.126;11.542;2024-01-11T01:33:27;36.00;;;11.02;;
73382;SDS011;61600;48.126;11.542;2024-01-11T01:35:52;34.03;;;10.25;;
73382;SDS011;61600;48.126;11.542;2024-01-11T01:38:18;28.20;;;10.20;;
73382;SDS011;61600;48.126;11.542;2024-01-11T01:40:43;31.15;;;9.43;;
73382;SDS011;61600;48.126;11.542;2024-01-11T01:43:09;34.17;;;11.35;;
73382;SDS011;61600;48.126;11.542;2024-01-11T01:45:35;38.58;;;10.27;;
73382;SDS011;61600;48.126;11.542;2024-01-11T01:48:01;30.15;;;10.75;;
73382;SDS011;61600;48.126;11.542;2024-01-11T01:50:27;42.95;;;12.52;;
73382;SDS011;61600;48.126;11.542;2024-01-11T01:52:53;41.55;;;11.73;;
73382;SDS011;61600;48.126;11.542;2024-01-11T01:55:21;32.58;;;11.77;;
73382;SDS011;61600;48.126;11.542;2024-01-11T01:57:48;35.95;;;11.52;;
73382;SDS011;61600;48.126;11.542;2024-01-11T02:00:16;38.80;;;12.65;;
73382;SDS011;61600;48.126;11.542;2024-01-11T02:02:43;36.72;;;11.23;;
73382;SDS011;61600;48.126;11.542;2024-01-11T02:05:12;42.38;;;11.23;;
73382;SDS011;61600;48.126;11.542;2024-01-11T02:07:39;30.15;;;10.40;;
73382;SDS011;61600;48.126;11.542;2024-01-11T02:10:06;34.42;;;11.23;;
73382;SDS011;61600;48.126;11.542;2024-01-11T02:12:33;38.05;;;11.73;;
73382;SDS011;61600;48.126;11.542;2024-01-11T02:15:00;40.35;;;11.32;;
73382;SDS011;61600;48.126;11.542;2024-01-11T02:19:54;34.40;;;11.15;;
73382;SDS011;61600;48.126;11.542;2024-01-11T02:22:30;33.08;;;10.45;;
73382;SDS011;61600;48.126;11.542;2024-01-11T02:24:57;29.25;;;9.63;;
73382;SDS011;61600;48.126;11.542;2024-01-11T02:27:23;30.88;;;9.38;;
73382;SDS011;61600;48.126;11.542;2024-01-11T02:29:49;30.85;;;9.35;;
73382;SDS011;61600;48.126;11.542;2024-01-11T02:32:15;29.85;;;8.90;;
73382;SDS011;61600;48.126;11.542;2024-01-11T02:34:42;31.80;;;10.00;;
73382;SDS011;61600;48.126;11.542;2024-01-11T02:37:08;30.38;;;9.93;;
73382;SDS011;61600;48.126;11.542;2024-01-11T02:39:34;33.78;;;10.10;;
73382;SDS011;61600;48.126;11.542;2024-01-11T02:42:00;33.40;;;9.82;;
73382;SDS011;61600;48.126;11.542;2024-01-11T02:44:26;31.20;;;10.23;;
73382;SDS011;61600;48.126;11.542;2024-01-11T02:46:51;35.65;;;10.48;;
73382;SDS011;61600;48.126;11.542;2024-01-11T02:49:17;32.28;;;10.57;;
73382;SDS011;61600;48.126;11.542;2024-01-11T02:51:43;33.67;;;9.48;;
73382;SDS011;61600;48.126;11.542;2024-01-11T02:54:09;38.08;;;10.00;;
73382;SDS011;61600;48.126;11.542;2024-01-11T02:56:35;31.00;;;9.77;;
73382;SDS011;61600;48.126;11.542;2024-01-11T02:59:01;30.65;;;10.13;;
73382;SDS011;61600;48.126;11.542;2024-01-11T03:01:27;27.17;;;8.27;;
73382;SDS011;61600;48.126;11.542;2024-01-11T03:03:52;27.67;;;8.95;;
73382;SDS011;61600;48.126;11.542;2024-01-11T03:06:20;30.33;;;9.07;;
73382;SDS011;61600;48.126;11.542;2024-01-11T03:08:48;37.88;;;9.48;;
73382;SDS011;61600;48.126;11.542;2024-01-11T03:11:14;29.33;;;8.82;;
73382;SDS011;61600;48.126;11.542;2024-01-11T03:13:40;36.80;;;9.43;;
73382;SDS011;61600;48.126;11.542;2024-01-11T03:16:06;30.85;;;9.52;;
73382;SDS011;61600;48.126;11.542;2024-01-11T03:18:33;30.15;;;9.05;;
73382;SDS011;61600;48.126;11.542;2024-01-11T03:20:59;30.67;;;10.40;;
73382;SDS011;61600;48.126;11.542;2024-01-11T03:23:25;28.65;;;10.20;;
73382;SDS011;61600;48.126;11.542;2024-01-11T03:25:51;30.17;;;9.18;;
73382;SDS011;61600;48.126;11.542;2024-01-11T03:28:21;35.28;;;11.63;;
73382;SDS011;61600;48.126;11.542;2024-01-11T03:30:48;26.42;;;9.18;;
73382;SDS011;61600;48.126;11.542;2024-01-11T03:33:14;38.58;;;10.45;;
73382;SDS011;61600;48.126;11.542;2024-01-11T03:35:43;27.25;;;9.30;;
73382;SDS011;61600;48.126;11.542;2024-01-11T03:40:39;23.23;;;8.07;;
73382;SDS011;61600;48.126;11.542;2024-01-11T03:43:05;29.20;;;9.35;;
73382;SDS011;61600;48.126;11.542;2024-01-11T03:45:30;28.23;;;9.57;;
73382;SDS011;61600;48.126;11.542;2024-01-11T03:48:16;26.75;;;8.52;;
73382;SDS011;61600;48.126;11.542;2024-01-11T03:50:43;26.95;;;9.48;;
73382;SDS011;61600;48.126;11.542;2024-01-11T03:53:11;31.98;;;9.45;;
73382;SDS011;61600;48.126;11.542;2024-01-11T03:55:40;29.48;;;9.75;;
73382;SDS011;61600;48.126;11.542;2024-01-11T03:58:09;33.28;;;10.50;;
73382;SDS011;61600;48.126;11.542;2024-01-11T04:00:39;33.40;;;9.88;;
73382;SDS011;61600;48.126;11.542;2024-01-11T04:03:07;25.38;;;9.48;;
73382;SDS011;61600;48.126;11.542;2024-01-11T04:05:33;25.70;;;9.07;;
73382;SDS011;61600;48.126;11.542;2024-01-11T04:07:59;32.53;;;9.60;;
73382;SDS011;61600;48.126;11.542;2024-01-11T04:10:25;31.60;;;9.57;;
73382;SDS011;61600;48.126;11.542;2024-01-11T04:12:55;28.30;;;9.65;;
73382;SDS011;61600;48.126;11.542;2024-01-11T04:15:22;29.88;;;10.35;;
73382;SDS011;61600;48.126;11.542;2024-01-11T04:17:48;36.22;;;10.40;;
73382;SDS011;61600;48.126;11.542;2024-01-11T04:20:18;31.02;;;9.13;;
73382;SDS011;61600;48.126;11.542;2024-01-11T04:22:44;30.90;;;10.20;;
73382;SDS011;61600;48.126;11.542;2024-01-11T04:25:10;32.55;;;9.85;;
73382;SDS011;61600;48.126;11.542;2024-01-11T04:27:41;29.95;;;8.93;;
73382;SDS011;61600;48.126;11.542;2024-01-11T04:30:10;30.83;;;10.30;;
73382;SDS011;61600;48.126;11.542;2024-01-11T04:35:03;34.70;;;10.45;;
73382;SDS011;61600;48.126;11.542;2024-01-11T04:37:38;36.65;;;10.35;;
73382;SDS011;61600;48.126;11.542;2024-01-11T04:40:06;36.22;;;9.93;;
73382;SDS011;61600;48.126;11.542;2024-01-11T04:42:32;32.60;;;9.20;;
73382;SDS011;61600;48.126;11.542;2024-01-11T04:44:58;27.10;;;9.43;;
73382;SDS011;61600;48.126;11.542;2024-01-11T04:47:24;31.88;;;9.63;;
73382;SDS011;61600;48.126;11.542;2024-01-11T04:49:50;29.38;;;9.27;;
73382;SDS011;61600;48.126;11.542;2024-01-11T04:52:16;29.50;;;10.20;;
73382;SDS011;61600;48.126;11.542;2024-01-11T04:54:45;30.83;;;9.68;;
73382;SDS011;61600;48.126;11.542;2024-01-11T04:57:15;26.15;;;9.52;;
73382;SDS011;61600;48.126;11.542;2024-01-11T04:59:43;25.02;;;9.55;;
73382;SDS011;61600;48.126;11.542;2024-01-11T05:02:09;30.70;;;9.95;;
73382;SDS011;61600;48.126;11.542;2024-01-11T05:04:39;27.27;;;10.43;;
73382;SDS011;61600;48.126;11.542;2024-01-11T05:07:05;30.83;;;9.60;;
73382;SDS011;61600;48.126;11.542;2024-01-11T05:09:32;31.73;;;10.15;;
73382;SDS011;61600;48.126;11.542;2024-01-11T05:12:01;27.73;;;9.55;;
73382;SDS011;61600;48.126;11.542;2024-01-11T05:14:30;29.75;;;9.30;;
73382;SDS011;61600;48.126;11.542;2024-01-11T05:16:59;31.05;;;9.98;;
73382;SDS011;61600;48.126;11.542;2024-01-11T05:19:26;25.85;;;9.63;;
73382;SDS011;61600;48.126;11.542;2024-01-11T05:21:51;29.13;;;9.30;;
73382;SDS011;61600;48.126;11.542;2024-01-11T05:24:17;31.25;;;10.35;;
73382;SDS011;61600;48.126;11.542;2024-01-11T05:26:42;32.90;;;11.25;;
73382;SDS011;61600;48.126;11.542;2024-01-11T05:29:08;30.88;;;10.27;;
73382;SDS011;61600;48.126;11.542;2024-01-11T05:31:34;37.88;;;11.27;;
73382;SDS011;61600;48.126;11.542;2024-01-11T05:34:00;35.00;;;11.82;;
73382;SDS011;61600;48.126;11.542;2024-01-11T05:36:25;37.08;;;11.50;;
73382;SDS011;61600;48.126;11.542;2024-01-11T05:38:51;24.73;;;9.88;;
73382;SDS011;61600;48.126;11.542;2024-01-11T05:41:17;30.92;;;9.80;;
73382;SDS011;61600;48.126;11.542;2024-01-11T05:43:42;29.77;;;10.52;;
73382;SDS011;61600;48.126;11.542;2024-01-11T05:46:08;25.50;;;9.70;;
73382;SDS011;61600;48.126;11.542;2024-01-11T05:48:34;26.85;;;9.82;;
73382;SDS011;61600;48.126;11.542;2024-01-11T05:51:00;31.85;;;10.82;;
73382;SDS011;61600;48.126;11.542;2024-01-11T05:53:26;26.27;;;9.23;;
73382;SDS011;61600;48.126;11.542;2024-01-11T05:55:52;28.08;;;9.73;;
73382;SDS011;61600;48.126;11.542;2024-01-11T05:58:19;33.05;;;10.65;;
73382;SDS011;61600;48.126;11.542;2024-01-11T06:00:46;28.65;;;9.65;;
73382;SDS011;61600;48.126;11.542;2024-01-11T06:03:12;30.55;;;9.45;;
73382;SDS011;61600;48.126;11.542;2024-01-11T06:05:39;29.70;;;9.30;;
73382;SDS011;61600;48.126;11.542;2024-01-11T06:08:05;30.67;;;9.63;;
73382;SDS011;61600;48.126;11.542;2024-01-11T06:10:40;33.00;;;10.52;;
73382;SDS011;61600;48.126;11.542;2024-01-11T06:13:06;25.83;;;9.50;;
73382;SDS011;61600;48.126;11.542;2024-01-11T06:15:32;30.20;;;9.27;;
73382;SDS011;61600;48.126;11.542;2024-01-11T06:17:58;34.40;;;10.15;;
73382;SDS011;61600;48.126;11.542;2024-01-11T06:20:25;27.40;;;10.18;;
73382;SDS011;61600;48.126;11.542;2024-01-11T06:22:51;27.48;;;9.38;;
73382;SDS011;61600;48.126;11.542;2024-01-11T06:25:17;34.50;;;10.73;;
73382;SDS011;61600;48.126;11.542;2024-01-11T06:27:43;34.33;;;10.73;;
73382;SDS011;61600;48.126;11.542;2024-01-11T06:30:09;29.65;;;10.25;;
73382;SDS011;61600;48.126;11.542;2024-01-11T06:32:37;26.35;;;9.50;;
73382;SDS011;61600;48.126;11.542;2024-01-11T06:35:02;26.65;;;9.52;;
73382;SDS011;61600;48.126;11.542;2024-01-11T06:37:29;29.20;;;9.65;;
73382;SDS011;61600;48.126;11.542;2024-01-11T06:39:54;40.13;;;10.70;;
73382;SDS011;61600;48.126;11.542;2024-01-11T06:42:21;29.45;;;11.10;;
73382;SDS011;61600;48.126;11.542;2024-01-11T06:44:46;25.15;;;10.13;;
73382;SDS011;61600;48.126;11.542;2024-01-11T06:47:12;27.35;;;9.88;;
73382;SDS011;61600;48.126;11.542;2024-01-11T06:49:39;31.80;;;10.48;;
73382;SDS011;61600;48.126;11.542;2024-01-11T06:52:07;32.75;;;10.68;;
73382;SDS011;61600;48.126;11.542;2024-01-11T06:54:32;27.90;;;9.77;;
73382;SDS011;61600;48.126;11.542;2024-01-11T06:57:01;28.58;;;9.00;;
73382;SDS011;61600;48.126;11.542;2024-01-11T06:59:28;35.90;;;11.20;;
73382;SDS011;61600;48.126;11.542;2024-01-11T07:01:59;23.55;;;9.27;;
73382;SDS011;61600;48.126;11.542;2024-01-11T07:04:34;25.63;;;8.60;;
73382;SDS011;61600;48.126;11.542;2024-01-11T07:07:01;30.38;;;9.43;;
73382;SDS011;61600;48.126;11.542;2024-01-11T07:09:30;24.75;;;8.70;;
73382;SDS011;61600;48.126;11.542;2024-01-11T07:11:56;28.42;;;9.63;;
73382;SDS011;61600;48.126;11.542;2024-01-11T07:14:28;24.27;;;7.93;;
73382;SDS011;61600;48.126;11.542;2024-01-11T07:17:03;21.90;;;7.78;;
73382;SDS011;61600;48.126;11.542;2024-01-11T07:19:29;27.17;;;9.00;;
73382;SDS011;61600;48.126;11.542;2024-01-11T07:21:55;31.30;;;10.18;;
73382;SDS011;61600;48.126;11.542;2024-01-11T07:24:21;25.02;;;9.10;;
73382;SDS011;61600;48.126;11.542;2024-01-11T07:26:47;22.65;;;8.80;;
73382;SDS011;61600;48.126;11.542;2024-01-11T07:29:13;22.73;;;8.15;;
73382;SDS011;61600;48.126;11.542;2024-01-11T07:31:39;25.08;;;8.88;;
73382;SDS011;61600;48.126;11.542;2024-01-11T07:34:10;27.42;;;8.93;;
73382;SDS011;61600;48.126;11.542;2024-01-11T07:36:46;25.90;;;8.70;;
73382;SDS011;61600;48.126;11.542;2024-01-11T07:39:14;21.20;;;9.02;;
73382;SDS011;61600;48.126;11.542;2024-01-11T07:41:51;28.17;;;9.30;;
73382;SDS011;61600;48.126;11.542;2024-01-11T07:44:19;26.88;;;9.07;;
73382;SDS011;61600;48.126;11.542;2024-01-11T07:46:46;22.88;;;8.32;;
73382;SDS011;61600;48.126;11.542;2024-01-11T07:49:25;28.73;;;9.65;;
73382;SDS011;61600;48.126;11.542;2024-01-11T07:51:53;26.35;;;8.93;;
73382;SDS011;61600;48.126;11.542;2024-01-11T07:54:19;31.08;;;10.32;;
73382;SDS011;61600;48.126;11.542;2024-01-11T07:56:45;25.83;;;8.43;;
73382;SDS011;61600;48.126;11.542;2024-01-11T07:59:16;24.70;;;9.90;;
73382;SDS011;61600;48.126;11.542;2024-01-11T08:01:43;29.88;;;8.52;;
73382;SDS011;61600;48.126;11.542;2024-01-11T08:04:09;30.60;;;9.30;;
73382;SDS011;61600;48.126;11.542;2024-01-11T08:06:36;26.90;;;10.00;;
73382;SDS011;61600;48.126;11.542;2024-01-11T08:09:03;27.48;;;9.43;;
73382;SDS011;61600;48.126;11.542;2024-01-11T08:11:29;24.83;;;9.05;;
73382;SDS011;61600;48.126;11.542;2024-01-11T08:13:56;27.80;;;10.30;;
73382;SDS011;61600;48.126;11.542;2024-01-11T08:16:22;28.88;;;9.10;;
73382;SDS011;61600;48.126;11.542;2024-01-11T08:18:48;32.67;;;10.18;;
73382;SDS011;61600;48.126;11.542;2024-01-11T08:21:14;29.42;;;10.25;;
73382;SDS011;61600;48.126;11.542;2024-01-11T08:23:40;27.88;;;9.05;;
73382;SDS011;61600;48.126;11.542;2024-01-11T08:26:11;36.95;;;11.50;;
73382;SDS011;61600;48.126;11.542;2024-01-11T08:28:39;27.00;;;9.48;;
73382;SDS011;61600;48.126;11.542;2024-01-11T08:31:05;32.72;;;11.45;;
73382;SDS011;61600;48.126;11.542;2024-01-11T08:33:34;33.97;;;10.27;;
73382;SDS011;61600;48.126;11.542;2024-01-11T08:36:03;31.08;;;10.48;;
73382;SDS011;61600;48.126;11.542;2024-01-11T08:38:30;38.30;;;10.35;;
73382;SDS011;61600;48.126;11.542;2024-01-11T08:40:56;39.65;;;11.05;;
73382;SDS011;61600;48.126;11.542;2024-01-11T08:43:21;27.05;;;9.52;;
73382;SDS011;61600;48.126;11.542;2024-01-11T08:45:47;35.08;;;10.55;;
73382;SDS011;61600;48.126;11.542;2024-01-11T08:48:13;33.03;;;11.38;;
73382;SDS011;61600;48.126;11.542;2024-01-11T08:50:39;31.52;;;10.65;;
73382;SDS011;61600;48.126;11.542;2024-01-11T08:53:06;38.47;;;12.13;;
73382;SDS011;61600;48.126;11.542;2024-01-11T08:55:32;26.70;;;10.30;;
73382;SDS011;61600;48.126;11.542;2024-01-11T08:57:58;29.80;;;10.10;;
73382;SDS011;61600;48.126;11.542;2024-01-11T09:00:25;35.13;;;11.57;;
73382;SDS011;61600;48.126;11.542;2024-01-11T09:02:53;29.63;;;10.43;;
73382;SDS011;61600;48.126;11.542;2024-01-11T09:05:19;30.52;;;10.90;;
73382;SDS011;61600;48.126;11.542;2024-01-11T09:07:46;30.88;;;12.65;;
73382;SDS011;61600;48.126;11.542;2024-01-11T09:10:15;35.35;;;12.65;;
73382;SDS011;61600;48.126;11.542;2024-01-11T09:12:41;28.13;;;10.70;;
73382;SDS011;61600;48.126;11.542;2024-01-11T09:15:07;33.88;;;12.32;;
73382;SDS011;61600;48.126;11.542;2024-01-11T09:17:33;33.40;;;11.52;;
73382;SDS011;61600;48.126;11.542;2024-01-11T09:20:00;30.83;;;10.30;;
73382;SDS011;61600;48.126;11.542;2024-01-11T09:22:25;31.95;;;10.13;;
73382;SDS011;61600;48.126;11.542;2024-01-11T09:24:51;38.65;;;13.80;;
73382;SDS011;61600;48.126;11.542;2024-01-11T09:27:18;36.72;;;13.05;;
73382;SDS011;61600;48.126;11.542;2024-01-11T09:29:44;38.25;;;14.63;;
73382;SDS011;61600;48.126;11.542;2024-01-11T09:32:11;43.63;;;13.48;;
73382;SDS011;61600;48.126;11.542;2024-01-11T09:34:38;52.88;;;16.75;;
73382;SDS011;61600;48.126;11.542;2024-01-11T09:37:03;46.75;;;15.63;;
73382;SDS011;61600;48.126;11.542;2024-01-11T09:39:33;45.47;;;15.68;;
73382;SDS011;61600;48.126;11.542;2024-01-11T09:42:11;49.70;;;15.65;;
73382;SDS011;61600;48.126;11.542;2024-01-11T09:44:37;49.88;;;16.33;;
73382;SDS011;61600;48.126;11.542;2024-01-11T09:47:08;44.28;;;15.70;;
73382;SDS011;61600;48.126;11.542;2024-01-11T09:49:38;48.13;;;16.75;;
73382;SDS011;61600;48.126;11.542;2024-01-11T09:52:06;48.42;;;16.75;;
73382;SDS011;61600;48.126;11.542;2024-01-11T09:54:36;59.33;;;17.27;;
73382;SDS011;61600;48.126;11.542;2024-01-11T09:57:06;48.22;;;16.13;;
73382;SDS011;61600;48.126;11.542;2024-01-11T09:59:35;47.95;;;15.93;;
73382;SDS011;61600;48.126;11.542;2024-01-11T10:02:02;40.70;;;15.43;;
73382;SDS011;61600;48.126;11.542;2024-01-11T10:04:30;50.10;;;15.75;;
73382;SDS011;61600;48.126;11.542;2024-01-11T10:07:01;45.53;;;13.98;;
73382;SDS011;61600;48.126;11.542;2024-01-11T10:09:33;42.63;;;14.95;;
73382;SDS011;61600;48.126;11.542;2024-01-11T10:12:02;46.47;;;15.63;;
73382;SDS011;61600;48.126;11.542;2024-01-11T10:14:30;56.50;;;15.50;;
73382;SDS011;61600;48.126;11.542;2024-01-11T10:16:59;49.92;;;15.88;;
73382;SDS011;61600;48.126;11.542;2024-01-11T10:19:31;48.97;;;17.50;;
73382;SDS011;61600;48.126;11.542;2024-01-11T10:22:01;45.47;;;15.65;;
73382;SDS011;61600;48.126;11.542;2024-01-11T10:24:32;45.35;;;15.13;;
73382;SDS011;61600;48.126;11.542;2024-01-11T10:27:01;40.53;;;15.07;;
73382;SDS011;61600;48.126;11.542;2024-01-11T10:29:33;47.25;;;15.88;;
73382;SDS011;61600;48.126;11.542;2024-01-11T10:32:11;48.58;;;15.52;;
73382;SDS011;61600;48.126;11.542;2024-01-11T10:34:39;44.67;;;14.88;;
73382;SDS011;61600;48.126;11.542;2024-01-11T10:37:15;45.22;;;15.40;;
73382;SDS011;61600;48.126;11.542;2024-01-11T10:39:44;43.40;;;15.60;;
73382;SDS011;61600;48.126;11.542;2024-01-11T10:42:12;44.20;;;16.20;;
73382;SDS011;61600;48.126;11.542;2024-01-11T10:44:43;44.25;;;16.27;;
73382;SDS011;61600;48.126;11.542;2024-01-11T10:47:14;56.90;;;17.45;;
73382;SDS011;61600;48.126;11.542;2024-01-11T10:49:42;53.95;;;17.08;;
73382;SDS011;61600;48.126;11.542;2024-01-11T10:52:11;54.88;;;17.77;;
73382;SDS011;61600;48.126;11.542;2024-01-11T10:54:39;44.85;;;17.02;;
73382;SDS011;61600;48.126;11.542;2024-01-11T10:57:06;49.35;;;15.77;;
73382;SDS011;61600;48.126;11.542;2024-01-11T11:02:05;49.92;;;14.95;;
73382;SDS011;61600;48.126;11.542;2024-01-11T11:04:38;44.97;;;14.77;;
73382;SDS011;61600;48.126;11.542;2024-01-11T11:07:10;47.72;;;16.27;;
73382;SDS011;61600;48.126;11.542;2024-01-11T11:09:37;52.38;;;15.20;;
73382;SDS011;61600;48.126;11.542;2024-01-11T11:12:09;46.53;;;15.75;;
73382;SDS011;61600;48.126;11.542;2024-01-11T11:14:39;49.58;;;16.63;;
73382;SDS011;61600;48.126;11.542;2024-01-11T11:17:10;47.50;;;17.25;;
73382;SDS011;61600;48.126;11.542;2024-01-11T11:19:39;51.85;;;17.30;;
73382;SDS011;61600;48.126;11.542;2024-01-11T11:22:06;61.13;;;16.83;;
73382;SDS011;61600;48.126;11.542;2024-01-11T11:24:39;66.22;;;18.20;;
73382;SDS011;61600;48.126;11.542;2024-01-11T11:27:05;46.58;;;15.32;;
73382;SDS011;61600;48.126;11.542;2024-01-11T11:32:38;48.58;;;17.60;;
73382;SDS011;61600;48.126;11.542;2024-01-11T11:35:11;65.03;;;17.67;;
73382;SDS011;61600;48.126;11.542;2024-01-11T11:37:38;47.50;;;15.93;;
73382;SDS011;61600;48.126;11.542;2024-01-11T11:40:09;53.20;;;17.38;;
73382;SDS011;61600;48.126;11.542;2024-01-11T11:42:37;52.67;;;16.48;;
73382;SDS011;61600;48.126;11.542;2024-01-11T11:45:05;47.13;;;14.18;;
73382;SDS011;61600;48.126;11.542;2024-01-11T11:47:36;54.78;;;18.27;;
73382;SDS011;61600;48.126;11.542;2024-01-11T11:50:11;59.85;;;18.50;;
73382;SDS011;61600;48.126;11.542;2024-01-11T11:52:39;42.38;;;14.77;;
73382;SDS011;61600;48.126;11.542;2024-01-11T11:55:08;51.58;;;18.33;;
73382;SDS011;61600;48.126;11.542;2024-01-11T11:57:35;59.03;;;18.30;;
73382;SDS011;61600;48.126;11.542;2024-01-11T12:00:06;53.92;;;16.65;;
73382;SDS011;61600;48.126;11.542;2024-01-11T12:02:33;50.00;;;15.65;;
73382;SDS011;61600;48.126;11.542;2024-01-11T12:05:02;58.10;;;18.10;;
73382;SDS011;61600;48.126;11.542;2024-01-11T12:07:31;50.95;;;16.08;;
73382;SDS011;61600;48.126;11.542;2024-01-11T12:09:58;49.95;;;16.67;;
73382;SDS011;61600;48.126;11.542;2024-01-11T12:12:26;52.33;;;16.17;;
73382;SDS011;61600;48.126;11.542;2024-01-11T12:14:52;43.90;;;15.25;;
73382;SDS011;61600;48.126;11.542;2024-01-11T12:17:19;45.58;;;14.75;;
73382;SDS011;61600;48.126;11.542;2024-01-11T12:19:44;54.05;;;16.95;;
73382;SDS011;61600;48.126;11.542;2024-01-11T12:22:10;45.45;;;14.88;;
73382;SDS011;61600;48.126;11.542;2024-01-11T12:24:36;49.70;;;16.10;;
73382;SDS011;61600;48.126;11.542;2024-01-11T12:27:02;50.00;;;15.73;;
73382;SDS011;61600;48.126;11.542;2024-01-11T12:29:29;47.45;;;15.77;;
73382;SDS011;61600;48.126;11.542;2024-01-11T12:31:58;49.05;;;16.92;;
73382;SDS011;61600;48.126;11.542;2024-01-11T12:34:27;47.65;;;15.85;;
73382;SDS011;61600;48.126;11.542;2024-01-11T12:36:54;48.85;;;17.52;;
73382;SDS011;61600;48.126;11.542;2024-01-11T12:39:21;48.40;;;15.80;;
73382;SDS011;61600;48.126;11.542;2024-01-11T12:41:51;47.97;;;17.70;;
73382;SDS011;61600;48.126;11.542;2024-01-11T12:44:19;49.20;;;17.13;;
73382;SDS011;61600;48.126;11.542;2024-01-11T12:46:48;49.08;;;15.95;;
73382;SDS011;61600;48.126;11.542;2024-01-11T12:49:15;59.00;;;17.35;;
73382;SDS011;61600;48.126;11.542;2024-01-11T12:51:43;50.92;;;17.50;;
73382;SDS011;61600;48.126;11.542;2024-01-11T12:54:12;54.33;;;16.48;;
73382;SDS011;61600;48.126;11.542;2024-01-11T12:56:45;49.15;;;16.30;;
73382;SDS011;61600;48.126;11.542;2024-01-11T12:59:11;58.92;;;17.73;;
73382;SDS011;61600;48.126;11.542;2024-01-11T13:01:38;52.35;;;16.58;;
73382;SDS011;61600;48.126;11.542;2024-01-11T13:04:05;49.42;;;16.83;;
73382;SDS011;61600;48.126;11.542;2024-01-11T13:09:01;43.15;;;16.40;;
73382;SDS011;61600;48.126;11.542;2024-01-11T13:11:28;46.17;;;16.70;;
73382;SDS011;61600;48.126;11.542;2024-01-11T13:13:54;49.90;;;17.23;;
73382;SDS011;61600;48.126;11.542;2024-01-11T13:16:20;42.83;;;14.60;;
73382;SDS011;61600;48.126;11.542;2024-01-11T13:18:47;48.92;;;16.02;;
73382;SDS011;61600;48.126;11.542;2024-01-11T13:21:13;48.40;;;16.80;;
73382;SDS011;61600;48.126;11.542;2024-01-11T13:23:39;54.40;;;16.42;;
73382;SDS011;61600;48.126;11.542;2024-01-11T13:26:05;54.47;;;17.15;;
73382;SDS011;61600;48.126;11.542;2024-01-11T13:28:32;52.00;;;18.35;;
73382;SDS011;61600;48.126;11.542;2024-01-11T13:30:58;56.38;;;17.05;;
73382;SDS011;61600;48.126;11.542;2024-01-11T13:33:25;48.92;;;16.50;;
73382;SDS011;61600;48.126;11.542;2024-01-11T13:35:51;49.67;;;18.23;;
73382;SDS011;61600;48.126;11.542;2024-01-11T13:38:17;59.33;;;17.52;;
73382;SDS011;61600;48.126;11.542;2024-01-11T13:40:43;54.72;;;18.15;;
73382;SDS011;61600;48.126;11.542;2024-01-11T13:43:09;56.15;;;17.98;;
73382;SDS011;61600;48.126;11.542;2024-01-11T13:45:35;54.75;;;18.48;;
73382;SDS011;61600;48.126;11.542;2024-01-11T13:48:02;57.30;;;17.30;;
73382;SDS011;61600;48.126;11.542;2024-01-11T13:50:30;53.45;;;16.65;;
73382;SDS011;61600;48.126;11.542;2024-01-11T13:52:57;58.55;;;18.73;;
73382;SDS011;61600;48.126;11.542;2024-01-11T13:55:23;53.35;;;17.90;;
73382;SDS011;61600;48.126;11.542;2024-01-11T13:57:49;49.85;;;16.98;;
73382;SDS011;61600;48.126;11.542;2024-01-11T14:00:16;49.20;;;16.58;;
73382;SDS011;61600;48.126;11.542;2024-01-11T14:02:45;55.35;;;18.10;;
73382;SDS011;61600;48.126;11.542;2024-01-11T14:05:11;53.58;;;16.73;;
73382;SDS011;61600;48.126;11.542;2024-01-11T14:07:39;51.42;;;16.45;;
73382;SDS011;61600;48.126;11.542;2024-01-11T14:10:06;53.75;;;18.83;;
73382;SDS011;61600;48.126;11.542;2024-01-11T14:12:34;54.75;;;16.98;;
73382;SDS011;61600;48.126;11.542;2024-01-11T14:15:04;56.20;;;18.83;;
73382;SDS011;61600;48.126;11.542;2024-01-11T14:17:36;51.65;;;16.67;;
73382;SDS011;61600;48.126;11.542;2024-01-11T14:20:03;52.83;;;16.80;;
73382;SDS011;61600;48.126;11.542;2024-01-11T14:22:31;43.97;;;16.10;;
73382;SDS011;61600;48.126;11.542;2024-01-11T14:24:58;52.88;;;18.10;;
73382;SDS011;61600;48.126;11.542;2024-01-11T14:27:31;47.00;;;18.33;;
73382;SDS011;61600;48.126;11.542;2024-01-11T14:29:57;52.20;;;18.30;;